createdAt,value
2019-04-26T00:01:46.975Z,90.60
2019-04-26T00:04:18.497Z,84.30
2019-04-26T00:06:49.079Z,81.70
2019-04-26T00:09:25.055Z,84.70
2019-04-26T00:12:17.127Z,84.20
2019-04-26T00:15:10.094Z,87.43
2019-04-26T00:17:44.916Z,87.20
2019-04-26T00:20:14.893Z,93.60
2019-04-26T00:22:49.127Z,92.83
2019-04-26T00:25:20.126Z,87.87
2019-04-26T00:27:52.407Z,88.00
2019-04-26T00:30:21.665Z,92.07
2019-04-26T00:32:51.933Z,94.10
2019-04-26T00:35:23.924Z,90.20
2019-04-26T00:37:57.318Z,93.40
2019-04-26T00:40:26.591Z,90.13
2019-04-26T00:42:57.655Z,89.13
2019-04-26T00:45:32.674Z,84.97
2019-04-26T00:48:04.904Z,85.90
2019-04-26T00:50:52.226Z,96.77
2019-04-26T00:53:26.355Z,92.30
2019-04-26T00:56:18.735Z,92.17
2019-04-26T00:58:52.174Z,84.83
2019-04-26T01:01:23.734Z,99.53
2019-04-26T01:03:53.423Z,97.83
2019-04-26T01:06:25.101Z,87.43
2019-04-26T01:08:54.472Z,99.00
2019-04-26T01:11:24.278Z,98.53
2019-04-26T01:13:53.503Z,101.47
2019-04-26T01:16:22.854Z,100.10
2019-04-26T01:18:53.047Z,100.00
2019-04-26T01:21:26.836Z,97.90
2019-04-26T01:23:57.771Z,93.30
2019-04-26T01:26:30.013Z,97.40
2019-04-26T01:29:03.518Z,97.83
2019-04-26T01:31:37.894Z,104.47
2019-04-26T01:34:07.228Z,95.60
2019-04-26T01:36:36.770Z,99.43
2019-04-26T01:39:21.270Z,96.33
2019-04-26T01:42:00.815Z,100.97
2019-04-26T01:44:43.830Z,97.07
2019-04-26T01:47:13.349Z,98.10
2019-04-26T01:49:43.551Z,97.67
2019-04-26T01:52:14.366Z,106.93
2019-04-26T01:54:45.751Z,98.43
2019-04-26T01:57:15.490Z,96.23
2019-04-26T01:59:48.469Z,98.70
2019-04-26T02:02:25.683Z,98.03
2019-04-26T02:04:57.866Z,99.33
2019-04-26T02:07:40.493Z,95.10
2019-04-26T02:10:10.890Z,98.30
2019-04-26T02:12:40.855Z,99.77
2019-04-26T02:15:10.593Z,94.60
2019-04-26T02:17:40.833Z,96.10
2019-04-26T02:20:11.750Z,93.40
2019-04-26T02:23:10.238Z,94.23
2019-04-26T02:25:39.559Z,95.30
2019-04-26T02:28:09.045Z,93.37
2019-04-26T02:30:38.267Z,91.23
2019-04-26T02:33:07.534Z,96.53
2019-04-26T02:35:36.976Z,92.20
2019-04-26T02:38:06.134Z,97.60
2019-04-26T02:40:36.866Z,97.97
2019-04-26T02:43:06.866Z,91.83
2019-04-26T02:46:04.129Z,96.80
2019-04-26T02:49:00.302Z,94.00
2019-04-26T02:51:36.435Z,97.87
2019-04-26T02:54:17.058Z,96.23
2019-04-26T02:56:47.433Z,98.53
2019-04-26T02:59:42.508Z,95.53
2019-04-26T03:02:26.554Z,103.47
2019-04-26T03:05:02.925Z,97.57
2019-04-26T03:07:44.767Z,93.57
2019-04-26T03:10:14.693Z,104.23
2019-04-26T03:12:46.881Z,96.43
2019-04-26T03:15:34.147Z,98.10
2019-04-26T03:18:22.820Z,97.60
2019-04-26T03:20:58.693Z,92.53
2019-04-26T03:23:58.987Z,94.47
2019-04-26T03:26:46.523Z,94.93
2019-04-26T03:29:37.435Z,93.17
2019-04-26T03:32:23.307Z,85.40
2019-04-26T03:35:21.939Z,88.80
2019-04-26T03:38:05.597Z,80.57
2019-04-26T03:40:45.763Z,90.23
2019-04-26T03:43:34.385Z,85.63
2019-04-26T03:46:12.302Z,84.80
2019-04-26T03:48:48.880Z,88.57
2019-04-26T03:51:43.051Z,85.03
2019-04-26T03:54:18.502Z,89.60
2019-04-26T03:57:05.638Z,81.43
2019-04-26T04:00:01.315Z,89.43
2019-04-26T04:03:05.697Z,90.23
2019-04-26T04:05:43.689Z,83.97
2019-04-26T04:08:16.396Z,85.70
2019-04-26T04:10:48.485Z,85.67
2019-04-26T04:13:40.863Z,78.57
2019-04-26T04:16:16.750Z,80.50
2019-04-26T04:18:53.903Z,78.97
2019-04-26T04:21:44.626Z,79.90
2019-04-26T04:24:24.087Z,83.57
2019-04-26T04:27:32.096Z,83.20
2019-04-26T04:30:19.747Z,89.07
2019-04-26T04:33:26.452Z,78.70
2019-04-26T04:35:58.148Z,77.90
2019-04-26T04:39:18.036Z,79.00
2019-04-26T04:42:19.678Z,66.67
2019-04-26T04:45:06.531Z,69.80
2019-04-26T04:51:52.294Z,61.57
2019-04-26T04:55:08.276Z,57.40
2019-04-26T05:02:32.272Z,52.90
2019-04-26T05:06:42.818Z,49.47
2019-04-26T05:13:42.120Z,49.70
2019-04-26T05:20:29.427Z,46.53
2019-04-26T05:23:47.092Z,39.90
2019-04-26T05:26:38.237Z,46.90
2019-04-26T05:29:17.610Z,38.10
2019-04-26T05:31:57.171Z,40.13
2019-04-26T05:34:37.472Z,45.00
2019-04-26T05:37:12.913Z,39.40
2019-04-26T05:39:51.379Z,38.43
2019-04-26T05:42:36.428Z,38.90
2019-04-26T05:45:31.915Z,46.63
2019-04-26T05:48:19.635Z,33.77
2019-04-26T05:51:23.972Z,44.20
2019-04-26T05:54:42.987Z,37.73
2019-04-26T05:57:20.567Z,42.33
2019-04-26T06:00:41.037Z,32.37
2019-04-26T06:03:48.393Z,29.47
2019-04-26T06:06:28.669Z,36.80
2019-04-26T06:09:18.616Z,42.77
2019-04-26T06:11:59.041Z,37.17
2019-04-26T06:14:48.249Z,40.67
2019-04-26T06:17:55.231Z,35.03
2019-04-26T06:20:35.834Z,41.40
2019-04-26T06:23:12.993Z,45.90
2019-04-26T06:26:05.547Z,36.40
2019-04-26T06:28:40.048Z,38.90
2019-04-26T06:31:34.492Z,44.13
2019-04-26T06:34:18.729Z,43.50
2019-04-26T06:37:04.646Z,40.67
2019-04-26T06:39:59.992Z,44.33
2019-04-26T06:42:34.733Z,40.93
2019-04-26T06:45:34.727Z,42.77
2019-04-26T06:48:19.503Z,53.73
2019-04-26T06:50:58.490Z,45.83
2019-04-26T06:53:36.593Z,43.73
2019-04-26T06:56:28.774Z,47.47
2019-04-26T06:59:10.370Z,40.10
2019-04-26T07:01:59.289Z,44.90
2019-04-26T07:04:38.576Z,41.30
2019-04-26T07:08:03.427Z,35.00
2019-04-26T07:10:52.159Z,39.80
2019-04-26T07:13:40.070Z,29.63
2019-04-26T07:16:22.244Z,36.27
2019-04-26T07:19:13.961Z,33.97
2019-04-26T07:22:35.491Z,31.33
2019-04-26T07:25:35.114Z,35.77
2019-04-26T07:28:28.546Z,26.80
2019-04-26T07:31:16.884Z,29.87
2019-04-26T07:34:02.376Z,25.48
2019-04-26T07:37:04.668Z,31.42
2019-04-26T07:40:32.719Z,28.67
2019-04-26T07:43:16.395Z,29.77
2019-04-26T07:46:05.795Z,28.12
2019-04-26T07:49:06.525Z,32.67
2019-04-26T07:51:53.838Z,31.37
2019-04-26T07:55:04.812Z,30.87
2019-04-26T07:57:47.295Z,28.23
2019-04-26T08:00:44.937Z,30.03
2019-04-26T08:03:33.920Z,27.13
2019-04-26T08:06:41.906Z,27.90
2019-04-26T08:09:25.068Z,33.15
2019-04-26T08:11:50.520Z,28.05
2019-04-26T08:14:31.076Z,35.85
2019-04-26T08:17:35.099Z,29.45
2019-04-26T08:20:18.534Z,24.87
2019-04-26T08:22:52.149Z,26.55
2019-04-26T08:25:24.205Z,30.05
2019-04-26T08:27:57.400Z,32.25
2019-04-26T08:30:30.107Z,23.80
2019-04-26T08:33:07.467Z,25.20
2019-04-26T08:35:35.864Z,30.40
2019-04-26T08:38:16.071Z,24.90
2019-04-26T08:40:42.737Z,25.43
2019-04-26T08:43:31.903Z,29.90
2019-04-26T08:46:18.263Z,25.40
2019-04-26T08:49:06.695Z,25.80
2019-04-26T08:51:39.054Z,29.47
2019-04-26T08:54:17.414Z,27.97
2019-04-26T08:56:51.177Z,30.57
2019-04-26T08:59:25.112Z,26.33
2019-04-26T09:02:15.514Z,24.47
2019-04-26T09:05:10.819Z,32.43
2019-04-26T09:07:41.886Z,28.30
2019-04-26T09:10:15.068Z,26.00
2019-04-26T09:12:47.849Z,29.67
2019-04-26T09:15:18.712Z,25.37
2019-04-26T09:17:47.919Z,27.40
2019-04-26T09:20:28.088Z,32.10
2019-04-26T09:23:03.894Z,25.07
2019-04-26T09:25:39.185Z,33.63
2019-04-26T09:28:15.067Z,30.13
2019-04-26T09:31:10.172Z,28.43
2019-04-26T09:33:44.665Z,25.20
2019-04-26T09:36:18.050Z,20.83
2019-04-26T09:38:46.444Z,27.83
2019-04-26T09:41:16.133Z,22.73
2019-04-26T09:43:50.843Z,31.63
2019-04-26T09:46:37.254Z,30.70
2019-04-26T09:49:29.247Z,27.77
2019-04-26T09:51:59.077Z,26.13
2019-04-26T09:54:29.282Z,27.20
2019-04-26T09:56:58.894Z,25.77
2019-04-26T09:59:28.557Z,26.50
2019-04-26T10:01:59.467Z,27.00
2019-04-26T10:04:29.640Z,34.93
2019-04-26T10:06:59.456Z,28.50
2019-04-26T10:09:30.872Z,25.80
2019-04-26T10:12:07.578Z,36.30
2019-04-26T10:14:46.555Z,31.73
2019-04-26T10:17:19.386Z,36.77
2019-04-26T10:19:50.558Z,35.13
2019-04-26T10:22:19.855Z,27.87
2019-04-26T10:24:50.569Z,31.50
2019-04-26T10:27:19.942Z,32.30
2019-04-26T10:29:49.199Z,28.10
2019-04-26T10:32:21.762Z,33.97
2019-04-26T10:34:49.917Z,25.03
2019-04-26T10:37:20.245Z,47.33
2019-04-26T10:39:50.006Z,35.73
2019-04-26T10:42:19.308Z,31.40
2019-04-26T10:44:48.460Z,30.73
2019-04-26T10:47:18.760Z,31.07
2019-04-26T10:49:48.866Z,25.60
2019-04-26T10:52:49.438Z,30.10
2019-04-26T10:55:42.039Z,27.50
2019-04-26T10:58:36.299Z,26.30
2019-04-26T11:01:07.706Z,24.93
2019-04-26T11:03:37.326Z,24.73
2019-04-26T11:06:06.690Z,37.23
2019-04-26T11:08:35.840Z,31.63
2019-04-26T11:11:07.357Z,28.07
2019-04-26T11:13:36.515Z,30.73
2019-04-26T11:16:07.481Z,29.60
2019-04-26T11:18:38.286Z,30.03
2019-04-26T11:21:08.249Z,23.57
2019-04-26T11:23:41.163Z,41.27
2019-04-26T11:26:09.380Z,39.03
2019-04-26T11:28:38.729Z,34.33
2019-04-26T11:31:08.359Z,41.33
2019-04-26T11:33:44.660Z,39.23
2019-04-26T11:36:09.142Z,41.43
2019-04-26T11:38:38.484Z,28.40
2019-04-26T11:41:08.211Z,51.90
2019-04-26T11:43:37.591Z,34.20
2019-04-26T11:46:07.241Z,33.13
2019-04-26T11:48:36.572Z,28.47
2019-04-26T11:51:05.689Z,28.83
2019-04-26T11:53:34.943Z,33.23
2019-04-26T11:56:05.725Z,25.93
2019-04-26T11:58:35.152Z,29.73
2019-04-26T12:01:06.433Z,28.50
2019-04-26T12:03:35.673Z,30.50
2019-04-26T12:06:14.517Z,26.50
2019-04-26T12:08:49.486Z,31.70
2019-04-26T12:11:30.392Z,27.43
2019-04-26T12:13:55.412Z,26.13
2019-04-26T12:16:23.835Z,30.30
2019-04-26T12:18:53.077Z,26.00
2019-04-26T12:21:22.741Z,28.33
2019-04-26T12:23:55.576Z,23.87
2019-04-26T12:26:23.963Z,25.37
2019-04-26T12:28:53.281Z,24.20
2019-04-26T12:31:22.855Z,25.87
2019-04-26T12:33:52.114Z,30.27
2019-04-26T12:36:21.281Z,32.43
2019-04-26T12:38:50.421Z,28.17
2019-04-26T12:41:25.240Z,28.40
2019-04-26T12:43:54.626Z,23.97
2019-04-26T12:46:31.976Z,29.03
2019-04-26T12:49:02.283Z,32.60
2019-04-26T12:51:31.873Z,31.20
2019-04-26T12:54:03.853Z,34.57
2019-04-26T12:56:34.962Z,31.00
2019-04-26T12:59:04.903Z,30.57
2019-04-26T13:01:34.569Z,27.20
2019-04-26T13:04:04.820Z,27.90
2019-04-26T13:06:37.619Z,26.20
2019-04-26T13:09:11.934Z,30.77
2019-04-26T13:12:07.761Z,25.93
2019-04-26T13:14:47.196Z,33.10
2019-04-26T13:17:21.957Z,28.90
2019-04-26T13:19:53.813Z,29.00
2019-04-26T13:22:22.105Z,26.87
2019-04-26T13:24:51.690Z,24.33
2019-04-26T13:27:21.402Z,30.30
2019-04-26T13:30:01.865Z,25.60
2019-04-26T13:32:25.341Z,28.47
2019-04-26T13:34:55.030Z,32.67
2019-04-26T13:37:24.386Z,33.30
2019-04-26T13:39:55.286Z,34.17
2019-04-26T13:42:24.986Z,39.47
2019-04-26T13:45:25.703Z,27.73
2019-04-26T13:48:12.892Z,33.23
2019-04-26T13:50:57.325Z,34.33
2019-04-26T13:53:30.003Z,32.93
2019-04-26T13:56:01.997Z,32.27
2019-04-26T13:58:31.139Z,24.97
2019-04-26T14:01:01.512Z,35.37
2019-04-26T14:03:33.105Z,33.37
2019-04-26T14:06:02.260Z,29.30
2019-04-26T14:08:31.463Z,30.20
2019-04-26T14:11:00.730Z,33.23
2019-04-26T14:13:30.427Z,31.23
2019-04-26T14:16:00.126Z,34.90
2019-04-26T14:18:30.270Z,42.87
2019-04-26T14:21:00.147Z,35.43
2019-04-26T14:23:49.521Z,35.97
2019-04-26T14:26:22.474Z,32.47
2019-04-26T14:29:00.300Z,36.17
2019-04-26T14:31:32.584Z,34.37
2019-04-26T14:34:05.453Z,38.17
2019-04-26T14:36:33.477Z,34.83
2019-04-26T14:39:05.981Z,35.67
2019-04-26T14:41:35.715Z,35.90
2019-04-26T14:44:15.142Z,38.37
2019-04-26T14:46:47.974Z,31.40
2019-04-26T14:49:06.814Z,33.60
2019-04-26T14:51:40.716Z,30.03
2019-04-26T14:54:11.398Z,33.10
2019-04-26T15:12:15.781Z,34.40
2019-04-26T15:14:44.727Z,33.80
2019-04-26T15:17:16.388Z,32.50
2019-04-26T15:19:47.301Z,34.67
2019-04-26T15:22:17.127Z,39.10
2019-04-26T15:24:46.803Z,45.03
2019-04-26T15:27:16.464Z,51.70
2019-04-26T15:29:46.216Z,42.87
2019-04-26T15:32:16.261Z,42.73
2019-04-26T15:34:45.490Z,45.53
2019-04-26T15:37:16.076Z,38.63
2019-04-26T15:40:02.708Z,43.53
2019-04-26T15:43:02.635Z,40.57
2019-04-26T15:45:52.486Z,43.60
2019-04-26T15:48:42.964Z,44.00
2019-04-26T15:51:13.200Z,41.17
2019-04-26T15:53:44.927Z,41.53
2019-04-26T15:56:16.278Z,43.83
2019-04-26T15:58:48.874Z,52.60
2019-04-26T16:01:16.893Z,42.97
2019-04-26T16:03:47.193Z,48.40
2019-04-26T16:06:16.274Z,39.37
2019-04-26T16:08:45.396Z,45.47
2019-04-26T16:11:14.536Z,48.10
2019-04-26T16:13:45.173Z,48.93
2019-04-26T16:16:16.525Z,40.10
2019-04-26T16:18:49.880Z,44.73
2019-04-26T16:21:19.899Z,46.37
2019-04-26T16:23:52.030Z,51.23
2019-04-26T16:26:20.465Z,40.30
2019-04-26T16:29:18.422Z,39.17
2019-04-26T16:31:54.859Z,39.20
2019-04-26T16:34:25.506Z,46.40
2019-04-26T16:36:54.759Z,39.63
2019-04-26T16:39:28.438Z,36.77
2019-04-26T16:41:59.326Z,38.80
2019-04-26T16:44:31.196Z,36.73
2019-04-26T16:47:03.731Z,39.97
2019-04-26T16:49:30.437Z,48.67
2019-04-26T16:52:03.104Z,36.27
2019-04-26T16:54:31.065Z,41.33
2019-04-26T16:57:06.817Z,41.03
2019-04-26T16:59:32.864Z,40.30
2019-04-26T17:02:02.886Z,44.73
2019-04-26T17:04:36.051Z,83.67
2019-04-26T17:07:05.087Z,40.20
2019-04-26T17:09:54.268Z,38.27
2019-04-26T17:12:05.610Z,46.90
2019-04-26T17:14:34.874Z,47.30
2019-04-26T17:17:07.487Z,52.10
2019-04-26T17:19:37.536Z,64.40
2019-04-26T17:22:17.716Z,59.17
2019-04-26T17:24:55.300Z,58.87
2019-04-26T17:27:25.697Z,67.67
2019-04-26T17:29:54.910Z,62.13
2019-04-26T17:32:24.799Z,65.53
2019-04-26T17:34:54.707Z,57.40
2019-04-26T17:37:26.293Z,62.97
2019-04-26T17:39:55.471Z,55.50
2019-04-26T17:42:28.865Z,56.07
2019-04-26T17:44:57.568Z,55.67
2019-04-26T17:47:28.337Z,59.67
2019-04-26T17:50:04.631Z,65.57
2019-04-26T17:52:35.528Z,63.33
2019-04-26T17:55:00.609Z,59.27
2019-04-26T17:57:34.736Z,66.00
2019-04-26T18:00:07.421Z,61.07
2019-04-26T18:02:42.142Z,63.03
2019-04-26T18:05:08.424Z,61.13
2019-04-26T18:07:43.658Z,68.37
2019-04-26T18:10:10.279Z,68.93
2019-04-26T18:12:40.982Z,63.00
2019-04-26T18:15:16.331Z,66.13
2019-04-26T18:18:04.372Z,59.17
2019-04-26T18:20:52.215Z,63.00
2019-04-26T18:23:23.333Z,65.47
2019-04-26T18:25:52.753Z,66.57
2019-04-26T18:28:22.800Z,68.80
2019-04-26T18:30:53.104Z,67.20
2019-04-26T18:33:25.858Z,65.97
2019-04-26T18:35:57.446Z,61.90
2019-04-26T18:38:25.159Z,68.00
2019-04-26T18:41:01.123Z,72.23
2019-04-26T18:43:25.586Z,64.33
2019-04-26T18:45:58.807Z,69.30
2019-04-26T18:48:27.534Z,67.30
2019-04-26T18:50:57.258Z,68.23
2019-04-26T18:53:46.138Z,74.30
2019-04-26T18:56:15.865Z,68.20
2019-04-26T18:58:45.165Z,65.70
2019-04-26T19:01:15.981Z,69.90
2019-04-26T19:03:45.568Z,61.37
2019-04-26T19:06:27.135Z,63.87
2019-04-26T19:08:50.138Z,64.37
2019-04-26T19:11:17.669Z,65.80
2019-04-26T19:14:12.989Z,60.50
2019-04-26T19:17:02.230Z,55.77
2019-04-26T19:20:01.990Z,70.70
2019-04-26T19:22:34.417Z,56.13
2019-04-26T19:25:03.117Z,54.10
2019-04-26T19:27:33.264Z,58.27
2019-04-26T19:30:09.253Z,59.40
2019-04-26T19:32:35.477Z,57.33
2019-04-26T19:35:07.584Z,54.93
2019-04-26T19:37:38.059Z,52.17
2019-04-26T19:40:10.680Z,55.43
2019-04-26T19:42:42.499Z,60.83
2019-04-26T19:45:19.534Z,62.63
2019-04-26T19:48:12.487Z,57.53
2019-04-26T19:50:54.291Z,66.00
2019-04-26T19:53:37.693Z,64.63
2019-04-26T19:56:32.609Z,60.50
2019-04-26T19:59:02.378Z,64.70
2019-04-26T20:01:31.963Z,68.30
2019-04-26T20:04:02.460Z,67.60
2019-04-26T20:06:34.016Z,72.50
2019-04-26T20:09:06.323Z,67.70
2019-04-26T20:11:36.561Z,73.90
2019-04-26T20:14:06.653Z,72.37
2019-04-26T20:16:36.454Z,77.83
2019-04-26T20:19:08.146Z,73.90
2019-04-26T20:21:38.399Z,77.83
2019-04-26T20:24:12.754Z,77.27
2019-04-26T20:26:44.686Z,78.87
2019-04-26T20:29:15.730Z,75.97
2019-04-26T20:32:12.505Z,74.97
2019-04-26T20:34:49.393Z,73.10
2019-04-26T20:37:22.869Z,76.03
2019-04-26T20:39:48.035Z,74.13
2019-04-26T20:42:17.250Z,75.13
2019-04-26T20:44:51.225Z,74.93
2019-04-26T20:47:18.811Z,67.97
2019-04-26T20:49:55.002Z,73.57
2019-04-26T20:52:23.116Z,71.30
2019-04-26T20:54:53.946Z,66.90
2019-04-26T20:57:26.599Z,70.63
2019-04-26T21:00:01.547Z,61.60
2019-04-26T21:02:24.991Z,63.07
2019-04-26T21:04:54.780Z,61.17
2019-04-26T21:07:24.038Z,67.07
2019-04-26T21:09:53.211Z,55.87
2019-04-26T21:12:26.032Z,54.63
2019-04-26T21:14:55.762Z,55.00
2019-04-26T21:17:27.710Z,47.83
2019-04-26T21:19:58.543Z,43.03
2019-04-26T21:22:28.846Z,41.83
2019-04-26T21:25:04.797Z,35.83
2019-04-26T21:27:43.037Z,29.50
2019-04-26T21:30:29.570Z,34.67
2019-04-26T21:33:10.349Z,26.00
2019-04-26T21:35:52.904Z,26.63
2019-04-26T21:38:30.652Z,29.40
2019-04-26T21:41:11.191Z,30.53
2019-04-26T21:43:38.286Z,25.80
2019-04-26T21:46:14.240Z,23.20
2019-04-26T21:48:41.902Z,26.07
2019-04-26T21:51:14.384Z,27.40
2019-04-26T21:53:42.176Z,23.77
2019-04-26T21:56:14.744Z,29.63
2019-04-26T21:58:46.166Z,25.10
2019-04-26T22:01:19.199Z,22.27
2019-04-26T22:03:54.117Z,26.47
2019-04-26T22:06:27.280Z,23.90
2019-04-26T22:09:02.741Z,26.27
2019-04-26T22:11:33.100Z,27.53
2019-04-26T22:14:07.521Z,25.97
2019-04-26T22:16:53.401Z,24.57
2019-04-26T22:19:43.211Z,25.60
2019-04-26T22:22:37.487Z,26.43
2019-04-26T22:25:06.856Z,29.90
2019-04-26T22:27:36.085Z,29.27
2019-04-26T22:30:09.051Z,26.37
2019-04-26T22:32:38.792Z,27.73
2019-04-26T22:35:08.450Z,29.63
2019-04-26T22:37:41.337Z,31.43
2019-04-26T22:40:10.560Z,32.43
2019-04-26T22:42:43.842Z,33.60
2019-04-26T22:45:23.505Z,31.70
2019-04-26T22:48:00.046Z,44.77
2019-04-26T22:50:29.587Z,35.93
2019-04-26T22:52:59.308Z,33.67
2019-04-26T22:55:28.972Z,36.27
2019-04-26T22:57:58.782Z,34.60
2019-04-26T23:00:33.119Z,34.20
2019-04-26T23:03:07.056Z,34.83
2019-04-26T23:05:37.262Z,39.47
2019-04-26T23:08:06.003Z,42.93
2019-04-26T23:10:44.606Z,41.90
2019-04-26T23:13:41.319Z,39.77
2019-04-26T23:16:25.179Z,37.97
2019-04-26T23:19:10.390Z,38.20
2019-04-26T23:21:45.486Z,39.23
2019-04-26T23:24:15.894Z,35.00
2019-04-26T23:26:46.644Z,35.47
2019-04-26T23:29:18.843Z,38.60
2019-04-26T23:31:47.763Z,35.73
2019-04-26T23:34:17.457Z,35.17
2019-04-26T23:36:49.057Z,33.70
2019-04-26T23:39:18.126Z,33.23
2019-04-26T23:41:47.914Z,38.33
2019-04-26T23:44:17.315Z,31.83
2019-04-26T23:46:46.443Z,45.43
2019-04-26T23:49:19.407Z,39.03
2019-04-26T23:51:47.927Z,36.93
2019-04-26T23:54:17.649Z,37.57
2019-04-26T23:56:47.340Z,38.03
2019-04-26T23:59:20.928Z,37.07
